sensor_id;sensor_type;location;lat;lon;timestamp;P1;P2;P0
45312;PMS7003;68267;51.540;5.854;2023-02-28T00:10:45;12.97;14.07;12.76
45312;PMS7003;68267;51.540;5.854;2023-02-28T00:24:04;12.37;14.51;13.42
45312;PMS7003;68267;51.540;5.854;2023-02-28T00:37:24;12.25;14.4;13.53
45312;PMS7003;68267;51.540;5.854;2023-02-28T00:50:44;12.73;13.85;12.87
45312;PMS7003;68267;51.540;5.854;2023-02-28T01:04:03;12.13;14.29;13.09
45312;PMS7003;68267;51.540;5.854;2023-02-28T01:17:23;12.97;15.05;13.42
45312;PMS7003;68267;51.540;5.854;2023-02-28T01:30:43;11.89;14.07;12.87
45312;PMS7003;68267;51.540;5.854;2023-02-28T01:44:02;13.09;15.16;13.53
45312;PMS7003;68267;51.540;5.854;2023-02-28T01:57:22;13.93;15.92;14.72
45312;PMS7003;68267;51.540;5.854;2023-02-28T02:10:42;13.09;15.16;14.07
45312;PMS7003;68267;51.540;5.854;2023-02-28T02:24:01;25.57;17.45;14.94
45312;PMS7003;68267;51.540;5.854;2023-02-28T02:37:21;13.45;15.49;13.85
45312;PMS7003;68267;51.540;5.854;2023-02-28T02:50:41;13.45;15.49;14.29
45312;PMS7003;68267;51.540;5.854;2023-02-28T03:04:00;12.73;14.83;13.63
45312;PMS7003;68267;51.540;5.854;2023-02-28T03:17:20;13.57;15.6;13.74
45312;PMS7003;68267;51.540;5.854;2023-02-28T03:30:40;14.29;15.49;14.62
45312;PMS7003;68267;51.540;5.854;2023-02-28T03:43:59;16.09;16.03;14.4
45312;PMS7003;68267;51.540;5.854;2023-02-28T03:57:19;14.77;16.69;15.49
45312;PMS7003;68267;51.540;5.854;2023-02-28T04:10:38;13.33;15.38;14.51
45312;PMS7003;68267;51.540;5.854;2023-02-28T04:23:58;12.25;14.4;13.85
45312;PMS7003;68267;51.540;5.854;2023-02-28T04:37:18;13.21;13.53;12.44
45312;PMS7003;68267;51.540;5.854;2023-02-28T04:50:37;12.37;12.98;11.67
45312;PMS7003;68267;51.540;5.854;2023-02-28T05:03:57;9.37;11.78;11.45
45312;PMS7003;68267;51.540;5.854;2023-02-28T05:17:16;9.61;12.0;11.02
45312;PMS7003;68267;51.540;5.854;2023-02-28T05:30:36;9.37;11.78;11.24
45312;PMS7003;68267;51.540;5.854;2023-02-28T05:43:56;10.45;12.76;11.67
45312;PMS7003;68267;51.540;5.854;2023-02-28T05:57:15;11.41;12.22;11.02
45312;PMS7003;68267;51.540;5.854;2023-02-28T06:10:35;10.09;12.44;11.78
45312;PMS7003;68267;51.540;5.854;2023-02-28T06:23:54;9.61;12.0;10.91
45312;PMS7003;68267;51.540;5.854;2023-02-28T06:37:14;8.65;11.13;10.04
45312;PMS7003;68267;51.540;5.854;2023-02-28T06:50:34;7.69;10.26;9.6
45312;PMS7003;68267;51.540;5.854;2023-02-28T07:03:53;9.73;12.11;10.8
45312;PMS7003;68267;51.540;5.854;2023-02-28T07:17:13;10.09;11.13;10.04
45312;PMS7003;68267;51.540;5.854;2023-02-28T07:30:33;7.45;10.04;9.49
45312;PMS7003;68267;51.540;5.854;2023-02-28T07:43:52;9.61;9.27;8.95
45312;PMS7003;68267;51.540;5.854;2023-02-28T07:57:12;10.45;11.45;9.49
45312;PMS7003;68267;51.540;5.854;2023-02-28T08:10:31;6.13;8.84;8.4
45312;PMS7003;68267;51.540;5.854;2023-02-28T08:23:51;10.93;8.29;7.2
45312;PMS7003;68267;51.540;5.854;2023-02-28T08:37:11;1.92;5.02;4.59
45312;PMS7003;68267;51.540;5.854;2023-02-28T08:50:30;1.92;5.02;4.8
45312;PMS7003;68267;51.540;5.854;2023-02-28T09:03:50;1.08;4.26;3.93
45312;PMS7003;68267;51.540;5.854;2023-02-28T09:17:10;0.12;3.39;3.28
45312;PMS7003;68267;51.540;5.854;2023-02-28T09:30:29;0.01;2.84;2.52
45312;PMS7003;68267;51.540;5.854;2023-02-28T09:43:49;0.01;3.17;2.62
45312;PMS7003;68267;51.540;5.854;2023-02-28T09:57:08;0.01;2.95;2.62
45312;PMS7003;68267;51.540;5.854;2023-02-28T10:10:28;0.01;2.84;2.73
45312;PMS7003;68267;51.540;5.854;2023-02-28T10:23:48;0.01;2.84;2.73
45312;PMS7003;68267;51.540;5.854;2023-02-28T10:37:07;0.0;3.28;3.06
45312;PMS7003;68267;51.540;5.854;2023-02-28T10:50:27;0.01;2.95;2.84
45312;PMS7003;68267;51.540;5.854;2023-02-28T11:03:46;0.01;3.17;3.17
45312;PMS7003;68267;51.540;5.854;2023-02-28T11:17:06;0.0;3.28;2.62
45312;PMS7003;68267;51.540;5.854;2023-02-28T11:30:26;0.24;3.5;3.28
45312;PMS7003;68267;51.540;5.854;2023-02-28T11:43:45;4.33;3.82;3.28
45312;PMS7003;68267;51.540;5.854;2023-02-28T11:57:05;0.36;3.61;3.5
45312;PMS7003;68267;51.540;5.854;2023-02-28T12:10:24;4.21;3.71;3.5
45312;PMS7003;68267;51.540;5.854;2023-02-28T12:23:44;1.2;4.37;3.5
45312;PMS7003;68267;51.540;5.854;2023-02-28T12:37:04;0.6;3.82;3.61
45312;PMS7003;68267;51.540;5.854;2023-02-28T12:50:23;0.36;3.61;3.39
45312;PMS7003;68267;51.540;5.854;2023-02-28T13:03:43;0.36;3.61;3.61
45312;PMS7003;68267;51.540;5.854;2023-02-28T13:17:03;0.72;3.93;3.61
45312;PMS7003;68267;51.540;5.854;2023-02-28T13:30:22;0.96;4.15;4.04
45312;PMS7003;68267;51.540;5.854;2023-02-28T13:43:42;1.44;4.59;4.48
45312;PMS7003;68267;51.540;5.854;2023-02-28T13:57:01;3.36;6.33;5.46
45312;PMS7003;68267;51.540;5.854;2023-02-28T14:10:21;1.08;4.26;4.15
45312;PMS7003;68267;51.540;5.854;2023-02-28T14:23:41;1.8;4.91;4.15
45312;PMS7003;68267;51.540;5.854;2023-02-28T14:37:00;1.56;4.7;4.37
45312;PMS7003;68267;51.540;5.854;2023-02-28T14:50:20;1.2;4.37;4.04
45312;PMS7003;68267;51.540;5.854;2023-02-28T15:03:40;1.8;4.91;4.7
45312;PMS7003;68267;51.540;5.854;2023-02-28T15:16:59;2.16;5.24;4.91
45312;PMS7003;68267;51.540;5.854;2023-02-28T15:30:19;7.57;5.24;4.59
45312;PMS7003;68267;51.540;5.854;2023-02-28T15:43:39;1.68;4.8;4.48
45312;PMS7003;68267;51.540;5.854;2023-02-28T15:56:58;2.04;5.13;4.59
45312;PMS7003;68267;51.540;5.854;2023-02-28T16:10:18;5.41;4.48;3.93
45312;PMS7003;68267;51.540;5.854;2023-02-28T16:23:37;2.16;5.24;4.7
45312;PMS7003;68267;51.540;5.854;2023-02-28T16:36:57;1.8;4.91;4.26
45312;PMS7003;68267;51.540;5.854;2023-02-28T16:50:17;9.01;5.79;4.8
45312;PMS7003;68267;51.540;5.854;2023-02-28T17:03:36;2.88;5.9;5.13
45312;PMS7003;68267;51.540;5.854;2023-02-28T17:16:56;10.57;6.88;5.57
45312;PMS7003;68267;51.540;5.854;2023-02-28T17:30:16;3.85;6.77;5.46
45312;PMS7003;68267;51.540;5.854;2023-02-28T17:43:35;2.88;5.9;5.35
45312;PMS7003;68267;51.540;5.854;2023-02-28T17:56:55;4.45;6.33;5.68
45312;PMS7003;68267;51.540;5.854;2023-02-28T18:10:15;3.12;6.11;5.9
45312;PMS7003;68267;51.540;5.854;2023-02-28T18:23:34;3.0;6.0;5.9
45312;PMS7003;68267;51.540;5.854;2023-02-28T18:36:54;4.09;6.99;6.22
45312;PMS7003;68267;51.540;5.854;2023-02-28T18:50:13;7.93;7.2;6.66
45312;PMS7003;68267;51.540;5.854;2023-02-28T19:03:33;4.93;7.75;6.77
45312;PMS7003;68267;51.540;5.854;2023-02-28T19:16:53;5.05;7.86;7.2
45312;PMS7003;68267;51.540;5.854;2023-02-28T19:30:12;4.93;7.75;7.53
45312;PMS7003;68267;51.540;5.854;2023-02-28T19:43:32;5.65;8.4;7.86
45312;PMS7003;68267;51.540;5.854;2023-02-28T19:56:51;6.37;9.06;8.62
45312;PMS7003;68267;51.540;5.854;2023-02-28T20:10:11;5.89;8.62;8.18
45312;PMS7003;68267;51.540;5.854;2023-02-28T20:23:31;7.45;10.04;9.06
45312;PMS7003;68267;51.540;5.854;2023-02-28T20:36:50;6.85;9.49;8.95
45312;PMS7003;68267;51.540;5.854;2023-02-28T20:50:10;7.81;10.36;9.93
45312;PMS7003;68267;51.540;5.854;2023-02-28T21:03:30;7.69;10.26;9.49
45312;PMS7003;68267;51.540;5.854;2023-02-28T21:16:49;8.05;10.58;9.93
45312;PMS7003;68267;51.540;5.854;2023-02-28T21:30:09;8.05;10.58;9.82
45312;PMS7003;68267;51.540;5.854;2023-02-28T21:43:28;8.05;10.58;9.82
45312;PMS7003;68267;51.540;5.854;2023-02-28T21:56:48;8.65;11.13;10.58
45312;PMS7003;68267;51.540;5.854;2023-02-28T22:10:08;9.25;11.67;10.36
45312;PMS7003;68267;51.540;5.854;2023-02-28T22:23:27;9.25;11.67;10.47
45312;PMS7003;68267;51.540;5.854;2023-02-28T22:36:47;9.01;11.45;10.58
45312;PMS7003;68267;51.540;5.854;2023-02-28T22:50:06;10.57;12.87;11.45
45312;PMS7003;68267;51.540;5.854;2023-02-28T23:03:26;11.65;13.85;12.76
45312;PMS7003;68267;51.540;5.854;2023-02-28T23:16:46;11.17;13.42;12.22
45312;PMS7003;68267;51.540;5.854;2023-02-28T23:30:05;12.61;14.72;14.18
45312;PMS7003;68267;51.540;5.854;2023-02-28T23:43:25;11.05;13.31;12.33
45312;PMS7003;68267;51.540;5.854;2023-02-28T23:56:45;11.05;13.31;12.11
